Time;durP1;ratioP1;P1;durP2;ratioP2;P2;SDS_P1;SDS_P2;PMS_P1;PMS_P2;Temp;Humidity;BMP_temperature;BMP_pressure;BME280_temperature;BME280_humidity;BME280_pressure;Samples;Min_cycle;Max_cycle;Signal;HPM_P1;HPM_P2
2022/12/24 00:01:22;;;;;;;;;12.00;9.33;;;;;12.25;100.00;100810.47;5105943;27;45174;-80
2022/12/24 00:03:50;;;;;;;;;11.00;7.67;;;;;12.52;100.00;100851.84;5082989;28;45451;-80
2022/12/24 00:06:18;;;;;;;;;12.00;11.33;;;;;12.48;100.00;100836.22;5067083;28;46009;-80
2022/12/24 00:08:49;;;;;;;;;9.33;7.00;;;;;12.31;100.00;100816.94;5105978;27;45251;-80
2022/12/24 00:11:20;;;;;;;;;10.33;8.67;;;;;12.29;100.00;100824.28;5070494;28;45489;-80
2022/12/24 00:13:56;;;;;;;;;8.33;7.67;;;;;12.31;100.00;100829.41;5067300;28;45318;-80
2022/12/24 00:16:38;;;;;;;;;11.00;8.33;;;;;12.30;100.00;100823.25;5065848;28;47033;-80
2022/12/24 00:19:11;;;;;;;;;14.00;8.00;;;;;12.26;100.00;100813.97;5067248;28;47299;-79
2022/12/24 00:21:37;;;;;;;;;10.33;8.00;;;;;12.31;100.00;100810.75;5084654;28;45335;-80
2022/12/24 00:24:07;;;;;;;;;9.33;8.67;;;;;12.51;100.00;100840.34;5053898;28;45503;-80
2022/12/24 00:27:01;;;;;;;;;14.00;9.33;;;;;12.23;100.00;100799.19;5087379;28;45457;-80
2022/12/24 00:29:34;;;;;;;;;4.33;4.33;;;;;12.51;100.00;100843.00;5054490;28;48325;-80
2022/12/24 00:32:08;;;;;;;;;8.67;8.33;;;;;12.15;100.00;100790.47;5086790;28;45254;-80
2022/12/24 00:34:35;;;;;;;;;10.33;8.67;;;;;12.25;100.00;100821.13;5066139;28;45375;-80
2022/12/24 00:37:00;;;;;;;;;10.33;9.00;;;;;12.24;100.00;100822.16;5085940;28;45437;-79
2022/12/24 00:39:32;;;;;;;;;9.33;7.33;;;;;12.24;100.00;100821.31;5065347;28;47144;-81
2022/12/24 00:41:57;;;;;;;;;12.00;8.67;;;;;12.49;100.00;100869.84;5035305;28;45364;-79
2022/12/24 00:44:26;;;;;;;;;17.67;11.67;;;;;12.10;100.00;100809.66;5063961;28;45382;-79
2022/12/24 00:46:56;;;;;;;;;9.33;7.00;;;;;12.15;100.00;100812.59;5057241;28;46180;-79
2022/12/24 00:49:24;;;;;;;;;13.00;9.00;;;;;12.07;100.00;100821.50;5072061;28;45407;-79
2022/12/24 00:51:57;;;;;;;;;18.00;8.00;;;;;12.06;100.00;100827.81;5063230;28;45624;-79
2022/12/24 00:54:25;;;;;;;;;10.67;8.33;;;;;11.99;100.00;100826.88;5083970;28;45288;-79
2022/12/24 00:56:56;;;;;;;;;10.33;9.33;;;;;12.28;100.00;100875.94;5085280;28;45537;-80
2022/12/24 00:59:30;;;;;;;;;10.67;8.67;;;;;12.35;100.00;100892.00;5084730;27;45406;-79
2022/12/24 01:02:15;;;;;;;;;7.67;7.33;;;;;12.27;100.00;100874.25;5067153;28;45475;-80
2022/12/24 01:07:33;;;;;;;;;8.67;6.67;;;;;12.03;100.00;100846.00;5076216;28;45354;-82
2022/12/24 01:09:58;;;;;;;;;10.00;3.67;;;;;11.90;100.00;100844.78;5068040;27;47276;-79
2022/12/24 01:12:31;;;;;;;;;14.33;12.00;;;;;12.00;100.00;100868.47;5102823;27;45430;-80
2022/12/24 01:14:56;;;;;;;;;8.33;7.00;;;;;12.08;100.00;100875.59;5081197;28;45429;-80
2022/12/24 01:17:30;;;;;;;;;13.33;11.67;;;;;11.96;100.00;100854.72;5082103;27;45268;-79
2022/12/24 01:20:10;;;;;;;;;11.67;10.67;;;;;11.92;100.00;100850.75;5103219;27;45415;-79
2022/12/24 01:22:43;;;;;;;;;11.33;7.67;;;;;11.93;100.00;100840.91;5091720;27;45341;-79
2022/12/24 01:25:13;;;;;;;;;10.67;10.00;;;;;11.89;100.00;100840.47;5106257;27;45270;-79
2022/12/24 01:27:46;;;;;;;;;13.67;12.00;;;;;11.98;100.00;100855.34;5105913;27;46617;-79
2022/12/24 01:30:15;;;;;;;;;15.67;13.33;;;;;11.97;100.00;100842.19;5086705;27;46961;-79
2022/12/24 01:32:47;;;;;;;;;13.33;11.00;;;;;11.95;100.00;100826.44;5086091;27;45228;-79
2022/12/24 01:35:15;;;;;;;;;12.67;11.33;;;;;12.08;100.00;100875.59;5085442;27;45237;-80
2022/12/24 01:37:52;;;;;;;;;13.00;10.00;;;;;11.97;100.00;100861.69;5105445;27;45460;-80
2022/12/24 01:43:23;;;;;;;;;9.33;8.33;;;;;11.99;100.00;100878.31;5104854;27;45497;-80
2022/12/24 01:45:54;;;;;;;;;14.00;10.00;;;;;12.00;100.00;100882.63;5071177;27;45221;-80
2022/12/24 01:49:03;;;;;;;;;11.33;10.00;;;;;12.07;100.00;100879.28;5104124;27;45481;-80
2022/12/24 01:51:51;;;;;;;;;11.67;11.67;;;;;12.46;100.00;100941.38;5091873;27;45647;-80
2022/12/24 01:55:02;;;;;;;;;10.33;8.33;;;;;12.43;100.00;100947.91;5084169;27;45457;-80
2022/12/24 01:57:51;;;;;;;;;13.67;10.00;;;;;12.45;100.00;100947.72;5065081;27;45518;-79
2022/12/24 02:00:24;;;;;;;;;15.00;11.00;;;;;12.09;100.00;100894.06;5070271;27;46953;-80
2022/12/24 02:02:52;;;;;;;;;10.00;9.67;;;;;12.03;100.00;100891.28;5103658;27;45542;-80
2022/12/24 02:05:26;;;;;;;;;9.33;8.67;;;;;12.01;100.00;100888.81;5103467;27;45470;-80
2022/12/24 02:08:09;;;;;;;;;9.67;8.00;;;;;12.10;100.00;100902.91;5104547;27;45376;-79
2022/12/24 02:10:35;;;;;;;;;10.33;8.00;;;;;12.33;100.00;100937.47;5072002;28;45401;-80
2022/12/24 02:13:02;;;;;;;;;11.33;9.00;;;;;12.15;100.00;100903.16;5058835;28;47947;-79
2022/12/24 02:15:55;;;;;;;;;9.67;9.00;;;;;12.40;100.00;100950.09;5085812;28;45378;-80
2022/12/24 02:18:33;;;;;;;;;12.33;8.00;;;;;12.53;100.00;100989.44;5061715;28;45532;-80
2022/12/24 02:21:29;;;;;;;;;9.33;9.00;;;;;12.49;100.00;100976.47;5085540;28;45633;-79
2022/12/24 02:24:08;;;;;;;;;12.67;8.67;;;;;12.47;100.00;100973.19;5075895;28;45253;-79
2022/12/24 02:26:47;;;;;;;;;11.67;8.00;;;;;12.43;100.00;100969.22;5084334;28;45276;-79
2022/12/24 02:29:36;;;;;;;;;15.33;10.33;;;;;12.49;100.00;100970.34;5073198;28;45348;-80
2022/12/24 02:32:16;;;;;;;;;10.67;8.67;;;;;12.38;100.00;100963.59;5085954;28;45365;-80
2022/12/24 02:34:50;;;;;;;;;12.33;10.00;;;;;12.39;100.00;100964.44;5085505;28;45364;-80
2022/12/24 02:37:25;;;;;;;;;14.67;12.33;;;;;12.40;100.00;100968.75;5085272;28;45437;-80
2022/12/24 02:40:07;;;;;;;;;12.00;11.00;;;;;12.31;100.00;100979.50;5052990;28;45394;-80
2022/12/24 02:42:49;;;;;;;;;9.00;8.00;;;;;12.39;100.00;100983.91;5084258;28;45387;-80
2022/12/24 02:45:18;;;;;;;;;9.00;7.00;;;;;12.38;100.00;100976.94;5066107;28;47250;-79
2022/12/24 02:47:44;;;;;;;;;12.00;9.67;;;;;12.35;100.00;100969.28;5084103;28;45273;-80
2022/12/24 02:50:15;;;;;;;;;11.00;7.00;;;;;12.34;100.00;100971.16;5071574;28;45497;-79
2022/12/24 02:52:45;;;;;;;;;10.67;8.00;;;;;12.34;100.00;100968.47;5084832;28;45342;-79
2022/12/24 02:55:29;;;;;;;;;11.67;7.33;;;;;12.35;100.00;100963.97;5051197;28;47787;-79
2022/12/24 02:58:36;;;;;;;;;9.67;8.00;;;;;12.34;100.00;100980.97;5046870;28;45371;-79
2022/12/24 03:01:31;;;;;;;;;6.00;6.00;;;;;12.22;100.00;100973.38;4993776;28;45456;-80
2022/12/24 03:04:19;;;;;;;;;10.33;8.00;;;;;12.29;100.00;100980.66;5052177;28;46765;-80
2022/12/24 03:06:57;;;;;;;;;11.00;9.00;;;;;12.28;100.00;100977.19;5065980;28;47192;-79
2022/12/24 03:09:41;;;;;;;;;10.67;7.67;;;;;12.16;100.00;100955.47;5060022;28;45942;-79
2022/12/24 03:12:13;;;;;;;;;12.33;7.00;;;;;12.19;100.00;100952.44;5070099;28;45378;-79
2022/12/24 03:14:40;;;;;;;;;8.33;6.67;;;;;12.15;100.00;100945.81;5082541;27;45686;-79
2022/12/24 03:17:07;;;;;;;;;13.33;10.00;;;;;12.08;100.00;100942.19;5100147;27;45649;-79
2022/12/24 03:19:34;;;;;;;;;12.00;10.00;;;;;12.20;100.00;100959.44;5101436;27;45477;-79
2022/12/24 03:22:03;;;;;;;;;15.00;11.33;;;;;12.19;100.00;100963.09;5095816;27;45339;-80
2022/12/24 03:24:29;;;;;;;;;14.00;10.33;;;;;12.15;100.00;100958.31;5111874;27;45374;-79
2022/12/24 03:26:55;;;;;;;;;11.33;8.33;;;;;12.11;100.00;100948.00;5110341;27;45374;-79
2022/12/24 03:29:20;;;;;;;;;14.00;10.67;;;;;12.13;100.00;100958.50;5088478;27;45600;-79
2022/12/24 03:31:51;;;;;;;;;8.67;7.33;;;;;12.05;100.00;100943.38;5091086;27;45379;-79
2022/12/24 03:34:17;;;;;;;;;12.67;9.00;;;;;12.10;100.00;100953.53;5087591;27;46211;-79
2022/12/24 03:36:43;;;;;;;;;13.33;9.67;;;;;11.91;100.00;100915.66;5105778;27;46612;-79
2022/12/24 03:39:09;;;;;;;;;4.67;4.00;;;;;11.92;100.00;100930.66;5105805;27;45405;-79
2022/12/24 03:41:35;;;;;;;;;10.67;7.00;;;;;12.03;100.00;100950.69;5106113;27;45245;-79
2022/12/24 03:44:01;;;;;;;;;18.00;13.00;;;;;11.86;100.00;100921.53;5081918;28;47119;-80
2022/12/24 03:46:27;;;;;;;;;8.00;7.00;;;;;11.96;100.00;100941.75;5078690;27;47178;-79
2022/12/24 03:48:52;;;;;;;;;9.67;7.67;;;;;11.99;100.00;100950.25;5074879;27;45692;-79
2022/12/24 03:51:20;;;;;;;;;13.00;8.33;;;;;11.96;100.00;100952.41;5087352;27;45308;-80
2022/12/24 03:53:46;;;;;;;;;8.00;6.33;;;;;11.96;100.00;100963.91;5087554;27;46633;-80
2022/12/24 03:56:12;;;;;;;;;11.00;7.00;;;;;11.87;100.00;100963.16;5104832;27;46202;-80
2022/12/24 03:58:37;;;;;;;;;12.67;9.33;;;;;11.87;100.00;100960.47;5087239;27;45319;-80
2022/12/24 04:01:03;;;;;;;;;13.67;12.67;;;;;11.95;100.00;100970.25;5097129;27;45453;-80
2022/12/24 04:03:28;;;;;;;;;9.67;7.00;;;;;11.87;100.00;100965.81;5083383;27;46220;-80
2022/12/24 04:06:06;;;;;;;;;7.67;5.00;;;;;11.86;100.00;100960.66;5105983;27;45409;-79
2022/12/24 04:08:32;;;;;;;;;10.00;8.00;;;;;11.99;100.00;100979.53;5101312;27;45409;-79
2022/12/24 04:10:57;;;;;;;;;7.00;7.00;;;;;11.91;100.00;100963.59;5087409;27;45652;-80
2022/12/24 04:13:23;;;;;;;;;10.00;8.67;;;;;11.92;100.00;100973.28;5100712;27;45233;-80
2022/12/24 04:16:06;;;;;;;;;6.00;6.00;;;;;12.02;100.00;100981.00;5097045;27;46175;-79
2022/12/24 04:18:31;;;;;;;;;11.00;8.67;;;;;11.94;100.00;100979.22;5090538;27;45289;-80
2022/12/24 04:20:57;;;;;;;;;9.00;7.67;;;;;11.99;100.00;100990.19;5091680;27;45398;-80
2022/12/24 04:23:23;;;;;;;;;11.00;9.00;;;;;11.96;100.00;100993.22;5086836;27;47226;-79
2022/12/24 04:25:48;;;;;;;;;10.00;10.00;;;;;11.92;100.00;100983.94;5091751;27;46514;-79
2022/12/24 04:28:17;;;;;;;;;8.00;6.33;;;;;12.05;100.00;101007.31;5086661;27;45307;-79
2022/12/24 04:30:46;;;;;;;;;12.33;7.33;;;;;12.08;100.00;100999.00;5106419;27;45348;-79
2022/12/24 04:33:11;;;;;;;;;16.67;10.67;;;;;12.09;100.00;101010.47;5106022;27;45225;-80
2022/12/24 04:35:40;;;;;;;;;7.33;6.00;;;;;12.07;100.00;101009.81;5104489;27;45220;-80
2022/12/24 04:38:06;;;;;;;;;9.67;8.00;;;;;12.04;100.00;100999.47;5086564;27;45373;-80
2022/12/24 04:40:32;;;;;;;;;9.00;9.00;;;;;12.10;100.00;101004.94;5106195;27;45507;-81
2022/12/24 04:42:57;;;;;;;;;8.67;6.67;;;;;12.21;100.00;101019.69;5083967;28;47157;-79
2022/12/24 04:45:25;;;;;;;;;9.00;6.00;;;;;12.17;100.00;101021.06;5083466;27;47099;-80
2022/12/24 04:47:50;;;;;;;;;10.33;9.33;;;;;12.20;100.00;101003.88;5086264;28;45223;-79
2022/12/24 04:50:15;;;;;;;;;12.33;8.67;;;;;12.27;100.00;101018.16;5100763;27;45492;-80
2022/12/24 04:52:41;;;;;;;;;11.00;8.00;;;;;12.30;100.00;101028.47;5089219;27;46884;-80
2022/12/24 04:55:09;;;;;;;;;14.00;9.00;;;;;12.26;100.00;101027.16;5089315;27;47095;-80
2022/12/24 04:57:36;;;;;;;;;10.67;7.33;;;;;12.24;100.00;101018.50;5085747;28;46315;-79
2022/12/24 05:00:04;;;;;;;;;9.00;7.33;;;;;12.28;100.00;101019.00;5099635;27;45487;-80
2022/12/24 05:02:29;;;;;;;;;7.33;6.00;;;;;12.31;100.00;101022.13;5094312;27;45479;-79
2022/12/24 05:04:55;;;;;;;;;10.00;7.00;;;;;12.34;100.00;101020.94;5086710;27;46295;-80
2022/12/24 05:07:20;;;;;;;;;10.00;9.00;;;;;12.25;100.00;101001.53;5108258;27;45218;-80
2022/12/24 05:09:45;;;;;;;;;11.67;8.00;;;;;12.32;100.00;101014.94;5085789;27;45988;-80
2022/12/24 05:12:11;;;;;;;;;6.00;6.00;;;;;12.26;100.00;101008.50;5104731;27;45243;-80
2022/12/24 05:14:36;;;;;;;;;10.67;6.67;;;;;12.32;100.00;101017.63;5103940;27;45394;-79
2022/12/24 05:17:01;;;;;;;;;10.67;7.67;;;;;12.25;100.00;101015.66;5085886;27;45328;-80
2022/12/24 05:19:27;;;;;;;;;9.00;7.00;;;;;12.30;100.00;101014.31;5081183;27;45242;-79
2022/12/24 05:27:22;;;;;;;;;12.00;10.00;;;;;12.27;100.00;100996.03;5106998;27;45314;-79
2022/12/24 05:29:47;;;;;;;;;9.00;7.00;;;;;12.18;100.00;100976.59;5099841;27;45223;-80
2022/12/24 05:32:15;;;;;;;;;12.00;8.67;;;;;12.27;100.00;100991.50;5077029;28;45963;-79
2022/12/24 05:34:41;;;;;;;;;9.33;8.00;;;;;12.25;100.00;100997.00;5086942;27;47373;-79
2022/12/24 05:37:06;;;;;;;;;9.33;9.33;;;;;12.25;100.00;100986.34;5105686;27;45445;-79
2022/12/24 05:39:31;;;;;;;;;11.67;9.67;;;;;12.25;100.00;100982.88;5100793;27;45382;-79
2022/12/24 05:41:56;;;;;;;;;14.33;8.00;;;;;12.18;100.00;100974.75;5099513;27;45523;-80
2022/12/24 05:44:22;;;;;;;;;7.67;7.00;;;;;12.32;100.00;100989.13;5091351;27;45490;-79
2022/12/24 05:46:47;;;;;;;;;12.67;8.00;;;;;12.38;100.00;100992.91;5087983;27;45476;-80
2022/12/24 05:49:13;;;;;;;;;5.33;4.33;;;;;12.33;100.00;100993.44;5089280;27;45476;-80
2022/12/24 05:51:41;;;;;;;;;8.67;8.33;;;;;12.35;100.00;100988.78;5089813;27;45531;-79
2022/12/24 05:54:10;;;;;;;;;9.67;8.67;;;;;12.37;100.00;100993.94;5089213;27;46489;-79
2022/12/24 05:56:35;;;;;;;;;10.67;9.67;;;;;12.29;100.00;100976.16;5089648;27;45708;-80
2022/12/24 05:59:01;;;;;;;;;9.00;7.00;;;;;12.32;100.00;100982.97;5103234;27;45337;-79
2022/12/24 06:01:26;;;;;;;;;12.00;9.67;;;;;12.35;100.00;100986.13;5083430;27;47271;-79
2022/12/24 06:03:52;;;;;;;;;7.00;6.67;;;;;12.36;100.00;100992.25;5107855;27;46015;-79
2022/12/24 06:06:21;;;;;;;;;9.33;6.67;;;;;12.30;100.00;100974.34;5090652;27;45383;-80
2022/12/24 06:08:50;;;;;;;;;9.00;7.00;;;;;12.35;100.00;100977.28;5092833;27;45441;-80
2022/12/24 06:11:18;;;;;;;;;12.00;7.00;;;;;12.25;100.00;100969.56;5073095;27;47769;-79
2022/12/24 06:13:44;;;;;;;;;10.33;7.33;;;;;12.29;100.00;100986.00;5087617;27;47418;-80
2022/12/24 06:16:19;;;;;;;;;8.67;6.33;;;;;12.22;100.00;100981.38;5106114;27;45232;-80
2022/12/24 06:18:47;;;;;;;;;11.00;7.00;;;;;12.27;100.00;100982.69;5083220;28;45351;-79
2022/12/24 06:21:16;;;;;;;;;9.33;6.00;;;;;12.30;100.00;100988.47;5064616;27;46351;-80
2022/12/24 06:23:45;;;;;;;;;7.00;6.67;;;;;12.18;100.00;100977.41;5100865;27;46710;-80
2022/12/24 06:26:14;;;;;;;;;7.33;7.00;;;;;12.27;100.00;101004.81;5100345;27;45303;-79
2022/12/24 06:28:40;;;;;;;;;11.67;8.00;;;;;12.31;100.00;101008.81;5081537;27;45413;-79
2022/12/24 06:31:11;;;;;;;;;12.00;10.00;;;;;12.33;100.00;101012.09;5081110;27;47202;-80
2022/12/24 06:33:37;;;;;;;;;10.00;8.00;;;;;12.17;100.00;100974.94;5099789;27;45247;-79
2022/12/24 06:36:06;;;;;;;;;5.00;4.67;;;;;12.32;100.00;101005.13;5094655;27;45426;-78
2022/12/24 06:38:34;;;;;;;;;9.33;9.00;;;;;12.23;100.00;100990.22;5080089;27;45360;-80
2022/12/24 06:41:05;;;;;;;;;6.67;6.67;;;;;12.25;100.00;101005.00;5077260;28;46781;-79
2022/12/24 06:43:30;;;;;;;;;8.33;6.33;;;;;12.28;100.00;101001.19;5092755;27;45432;-79
2022/12/24 06:45:55;;;;;;;;;8.00;6.00;;;;;12.25;100.00;100990.88;5074735;28;45322;-79
2022/12/24 06:48:21;;;;;;;;;9.33;6.67;;;;;12.23;100.00;100984.88;5076794;27;45417;-80
2022/12/24 06:50:49;;;;;;;;;10.67;7.33;;;;;12.20;100.00;100983.41;5102087;27;45424;-82
2022/12/24 06:53:16;;;;;;;;;6.00;4.33;;;;;12.10;100.00;100964.97;5069533;27;47684;-81
2022/12/24 06:55:42;;;;;;;;;5.00;4.00;;;;;11.86;100.00;100934.03;5093647;27;45353;-81
2022/12/24 06:58:07;;;;;;;;;7.33;3.67;;;;;12.06;100.00;100973.50;5078455;27;45359;-82
2022/12/24 07:00:33;;;;;;;;;4.33;4.33;;;;;12.09;100.00;100986.50;5101891;27;45624;-81
2022/12/24 07:02:58;;;;;;;;;7.00;6.00;;;;;11.94;100.00;100957.94;5087413;27;48025;-81
2022/12/24 07:05:27;;;;;;;;;3.00;3.00;;;;;12.10;100.00;100991.63;5102414;27;45480;-83
2022/12/24 07:07:52;;;;;;;;;4.33;3.67;;;;;12.06;100.00;100989.50;5101798;27;45329;-82
2022/12/24 07:10:19;;;;;;;;;8.00;5.00;;;;;12.04;100.00;100986.16;5094850;27;45491;-82
2022/12/24 07:12:45;;;;;;;;;4.33;4.00;;;;;11.85;100.00;100957.16;5103053;27;46102;-83
2022/12/24 07:15:12;;;;;;;;;4.67;4.00;;;;;11.99;100.00;100997.34;5071417;27;45955;-83
2022/12/24 07:17:37;;;;;;;;;5.00;4.00;;;;;12.02;100.00;101005.00;5103276;27;45378;-81
2022/12/24 07:20:05;;;;;;;;;4.67;4.00;;;;;11.99;100.00;101003.53;5084593;27;46300;-82
2022/12/24 07:22:30;;;;;;;;;4.00;3.00;;;;;11.97;100.00;101007.34;5102620;27;45520;-81
2022/12/24 07:24:55;;;;;;;;;6.00;3.67;;;;;11.87;100.00;101002.25;5077803;27;45457;-82
2022/12/24 07:27:21;;;;;;;;;5.00;4.67;;;;;11.74;100.00;100997.53;5101356;27;45377;-81
2022/12/24 07:29:47;;;;;;;;;5.33;4.33;;;;;11.85;100.00;101014.91;5095942;27;45373;-81
2022/12/24 07:32:12;;;;;;;;;6.00;3.33;;;;;11.78;100.00;101006.81;5102248;27;45392;-81
2022/12/24 07:34:38;;;;;;;;;5.00;4.00;;;;;11.69;100.00;100999.88;5095756;27;45341;-81
2022/12/24 07:37:04;;;;;;;;;4.00;3.33;;;;;11.80;100.00;101009.28;5073825;28;45403;-81
2022/12/24 07:39:29;;;;;;;;;8.00;5.00;;;;;11.83;100.00;101016.94;5082290;27;45354;-81
2022/12/24 07:41:54;;;;;;;;;7.00;4.67;;;;;11.80;100.00;101017.28;5077585;27;47232;-82
2022/12/24 07:44:20;;;;;;;;;2.00;2.00;;;;;11.80;100.00;101022.63;5095524;27;45481;-81
2022/12/24 07:46:45;;;;;;;;;2.67;2.67;;;;;11.78;100.00;101017.47;5096355;27;45894;-81
2022/12/24 07:49:11;;;;;;;;;8.00;4.00;;;;;11.83;100.00;101039.06;5080295;28;46395;-82
2022/12/24 07:51:36;;;;;;;;;5.00;4.00;;;;;11.85;100.00;101033.56;5092603;27;45486;-81
2022/12/24 07:54:03;;;;;;;;;6.00;6.00;;;;;11.80;100.00;101041.25;5093662;27;45349;-81
2022/12/24 07:56:30;;;;;;;;;7.00;4.00;;;;;11.71;100.00;101019.16;5093650;27;45265;-80
2022/12/24 07:58:55;;;;;;;;;6.00;5.00;;;;;11.83;100.00;101040.91;5102338;27;45382;-81
2022/12/24 08:01:20;;;;;;;;;6.00;2.67;;;;;11.84;100.00;101042.56;5095221;27;46014;-80
2022/12/24 08:03:46;;;;;;;;;6.00;4.00;;;;;11.76;100.00;101023.97;5081726;27;46534;-80
2022/12/24 08:06:11;;;;;;;;;3.00;2.33;;;;;11.72;100.00;101019.00;5101680;27;45501;-80
2022/12/24 08:08:37;;;;;;;;;2.00;2.00;;;;;11.83;100.00;101019.59;5092703;27;45663;-80
2022/12/24 08:11:04;;;;;;;;;3.33;2.67;;;;;11.88;100.00;101041.19;5094104;27;45476;-80
2022/12/24 08:13:30;;;;;;;;;4.00;4.00;;;;;11.88;100.00;101041.19;5098585;27;45448;-80
2022/12/24 08:15:55;;;;;;;;;4.33;3.67;;;;;11.82;100.00;101036.59;5083475;27;45208;-80
2022/12/24 08:18:21;;;;;;;;;4.00;4.00;;;;;11.87;100.00;101034.22;5102205;27;45390;-75
2022/12/24 08:20:46;;;;;;;;;3.00;3.00;;;;;11.98;100.00;101059.63;5087333;27;45321;-74
2022/12/24 08:23:12;;;;;;;;;3.00;3.00;;;;;11.98;100.00;101055.13;5081234;27;45334;-74
2022/12/24 08:25:42;;;;;;;;;4.67;3.00;;;;;11.98;100.00;101044.47;5100783;27;45280;-75
2022/12/24 08:28:07;;;;;;;;;6.67;3.33;;;;;12.02;100.00;101052.94;5101321;27;45319;-75
2022/12/24 08:30:33;;;;;;;;;8.00;7.67;;;;;12.00;100.00;101050.44;5101465;27;46091;-75
2022/12/24 08:32:58;;;;;;;;;2.00;2.00;;;;;12.11;100.00;101067.06;5088379;27;45411;-77
2022/12/24 08:35:24;;;;;;;;;4.00;4.00;;;;;12.02;100.00;101052.09;5094453;27;45445;-76
2022/12/24 08:37:49;;;;;;;;;5.33;4.67;;;;;12.15;100.00;101079.03;5086008;27;46973;-75
2022/12/24 08:40:15;;;;;;;;;4.67;4.67;;;;;12.06;100.00;101070.22;5101142;27;45347;-75
2022/12/24 08:42:40;;;;;;;;;9.00;7.67;;;;;12.11;100.00;101083.91;5069393;28;45429;-76
2022/12/24 08:45:06;;;;;;;;;5.67;4.00;;;;;12.13;100.00;101089.03;5096165;27;45333;-75
2022/12/24 08:47:31;;;;;;;;;7.67;5.33;;;;;12.20;100.00;101094.47;5093678;27;45316;-76
2022/12/24 08:49:56;;;;;;;;;3.00;3.00;;;;;12.22;100.00;101095.97;5101303;27;46037;-76
2022/12/24 08:52:22;;;;;;;;;5.67;3.67;;;;;12.22;100.00;101093.28;5082468;27;45383;-76
2022/12/24 08:54:47;;;;;;;;;4.00;4.00;;;;;12.18;100.00;101093.84;5083081;27;45445;-76
2022/12/24 08:57:13;;;;;;;;;2.00;2.00;;;;;12.26;100.00;101112.44;5082441;27;46005;-76
2022/12/24 08:59:39;;;;;;;;;4.67;4.67;;;;;12.28;100.00;101105.09;5082143;27;47865;-76
2022/12/24 09:02:04;;;;;;;;;3.00;3.00;;;;;12.30;100.00;101118.25;5101218;27;45343;-76
2022/12/24 09:04:30;;;;;;;;;2.33;2.00;;;;;12.20;100.00;101105.16;5100916;27;45391;-77
2022/12/24 09:06:55;;;;;;;;;4.00;4.00;;;;;12.25;100.00;101114.25;5096231;27;45387;-76
2022/12/24 09:09:20;;;;;;;;;6.00;3.67;;;;;12.34;100.00;101124.88;5083360;27;45312;-76
2022/12/24 09:11:48;;;;;;;;;5.00;5.00;;;;;12.31;100.00;101126.06;5098832;27;45355;-77
2022/12/24 09:14:14;;;;;;;;;3.33;3.33;;;;;12.25;100.00;101116.94;5088335;27;45421;-78
2022/12/24 09:16:39;;;;;;;;;4.00;3.00;;;;;12.18;100.00;101101.84;5088453;27;45469;-77
2022/12/24 09:19:04;;;;;;;;;4.00;3.00;;;;;12.33;100.00;101129.38;5099413;27;46220;-78
2022/12/24 09:21:30;;;;;;;;;3.67;3.67;;;;;12.37;100.00;101140.53;5081637;27;45452;-77
2022/12/24 09:23:55;;;;;;;;;3.33;3.00;;;;;12.32;100.00;101129.56;5086848;27;45314;-78
2022/12/24 09:26:28;;;;;;;;;4.33;3.00;;;;;12.36;100.00;101142.34;5088969;27;45461;-79
2022/12/24 09:28:55;;;;;;;;;2.00;2.00;;;;;12.36;100.00;101136.19;5100262;27;45346;-78
2022/12/24 09:31:21;;;;;;;;;2.67;2.67;;;;;12.42;100.00;101134.69;5082592;27;46064;-77
2022/12/24 09:33:48;;;;;;;;;3.33;2.00;;;;;12.35;100.00;101137.19;5065292;28;45433;-78
2022/12/24 09:36:14;;;;;;;;;5.33;4.00;;;;;12.49;100.00;101167.63;5093765;27;45242;-77
2022/12/24 09:38:40;;;;;;;;;5.67;4.67;;;;;12.40;100.00;101153.50;5082012;27;47456;-78
2022/12/24 09:41:15;;;;;;;;;5.00;3.67;;;;;12.48;100.00;101158.78;5082240;27;46819;-79
2022/12/24 09:43:46;;;;;;;;;2.33;2.00;;;;;12.50;100.00;101162.09;5082370;27;45335;-77
2022/12/24 09:46:20;;;;;;;;;2.33;2.33;;;;;12.58;100.00;101174.56;5100258;27;45457;-77
2022/12/24 09:48:49;;;;;;;;;3.33;2.33;;;;;12.56;100.00;101154.38;5098024;27;46002;-77
2022/12/24 09:51:25;;;;;;;;;2.67;2.33;;;;;12.57;100.00;101161.41;5099979;27;45381;-77
2022/12/24 09:53:55;;;;;;;;;3.67;3.00;;;;;12.65;100.00;101169.31;5091678;27;45387;-77
2022/12/24 09:56:38;;;;;;;;;2.33;2.33;;;;;12.71;100.00;101173.97;5096192;27;45287;-76
2022/12/24 09:59:05;;;;;;;;;6.33;3.00;;;;;12.73;100.00;101171.94;5100117;27;46473;-77
2022/12/24 10:01:33;;;;;;;;;4.67;3.00;;;;;12.74;100.00;101160.28;5086172;27;45312;-77
2022/12/24 10:04:01;;;;;;;;;2.00;2.00;;;;;12.67;100.00;101137.16;5081758;27;45437;-77
2022/12/24 10:06:39;;;;;;;;;6.00;3.00;;;;;12.78;100.00;101150.06;5081197;27;47433;-78
2022/12/24 10:09:26;;;;;;;;;4.67;4.67;;;;;12.87;100.00;101158.84;5077949;27;47466;-77
2022/12/24 10:12:32;;;;;;;;;3.00;1.00;;;;;12.92;100.00;101160.94;5089635;27;45572;-76
2022/12/24 10:15:23;;;;;;;;;5.00;3.67;;;;;12.87;100.00;101142.84;5088773;27;45326;-78
2022/12/24 10:17:59;;;;;;;;;5.33;4.67;;;;;12.91;100.00;101141.47;5080085;27;45817;-76
2022/12/24 10:20:37;;;;;;;;;5.00;4.00;;;;;13.05;100.00;101145.16;5099693;27;45493;-77
2022/12/24 10:23:14;;;;;;;;;3.67;2.67;;;;;13.05;100.00;101152.34;5081325;27;45317;-76
2022/12/24 10:25:51;;;;;;;;;3.00;3.00;;;;;13.10;100.00;101156.13;5077630;28;45306;-76
2022/12/24 10:28:32;;;;;;;;;5.00;5.00;;;;;13.01;100.00;101141.22;5091443;27;45326;-77
2022/12/24 10:31:02;;;;;;;;;6.33;4.33;;;;;13.07;100.00;101144.97;5097553;27;45461;-77
2022/12/24 10:33:41;;;;;;;;;6.67;2.33;;;;;13.10;100.00;101150.81;5066487;27;45362;-76
2022/12/24 10:36:14;;;;;;;;;4.33;3.33;;;;;13.13;100.00;101152.28;5081179;27;45708;-76
2022/12/24 10:38:39;;;;;;;;;2.00;2.00;;;;;13.10;100.00;101144.63;5092588;27;45497;-76
2022/12/24 10:41:07;;;;;;;;;3.00;3.00;;;;;13.17;100.00;101153.56;5077215;28;48089;-79
2022/12/24 10:43:32;;;;;;;;;5.67;4.00;;;;;13.20;100.00;101155.88;5064336;28;45640;-76
2022/12/24 10:46:06;;;;;;;;;3.00;2.00;;;;;13.20;100.00;101149.72;5088312;27;45477;-76
2022/12/24 10:48:41;;;;;;;;;3.67;3.67;;;;;13.20;100.00;101150.53;5092976;27;45274;-77
2022/12/24 10:51:24;;;;;;;;;3.67;3.67;;;;;13.20;100.00;101134.53;5099734;27;45648;-77
2022/12/24 10:54:05;;;;;;;;;2.67;2.67;;;;;13.25;100.00;101133.97;5094194;27;45386;-77
2022/12/24 10:56:31;;;;;;;;;4.33;2.33;;;;;13.28;100.00;101146.97;5071618;27;45480;-77
2022/12/24 10:58:56;;;;;;;;;1.67;1.67;;;;;13.31;100.00;101138.59;5099638;27;45275;-76
2022/12/24 11:01:43;;;;;;;;;2.33;1.33;;;;;13.30;100.00;101144.09;5080853;27;48254;-77
2022/12/24 11:04:15;;;;;;;;;5.00;3.00;;;;;13.41;100.00;101161.53;5099173;27;45307;-77
2022/12/24 11:07:02;;;;;;;;;3.33;3.33;;;;;13.30;100.00;101144.09;5096436;27;45423;-76
2022/12/24 11:09:30;;;;;;;;;3.00;2.33;;;;;13.35;100.00;101150.56;5080853;27;46783;-76
2022/12/24 11:11:58;;;;;;;;;6.00;4.33;;;;;13.41;100.00;101156.19;5080745;27;47591;-78
2022/12/24 11:14:27;;;;;;;;;5.00;4.33;;;;;13.43;100.00;101165.66;5099098;27;45451;-78
2022/12/24 11:16:55;;;;;;;;;3.67;2.33;;;;;13.41;100.00;101157.00;5092714;27;45346;-78
2022/12/24 11:19:29;;;;;;;;;5.67;5.00;;;;;13.33;100.00;101131.22;5092488;27;45511;-77
2022/12/24 11:22:16;;;;;;;;;7.33;7.33;;;;;13.43;100.00;101149.66;5086966;27;46037;-76
2022/12/24 11:24:43;;;;;;;;;6.33;5.67;;;;;13.41;100.00;101146.31;5080803;27;45757;-77
2022/12/24 11:27:50;;;;;;;;;8.00;7.67;;;;;13.52;100.00;101147.75;5099237;27;45312;-77
2022/12/24 11:30:15;;;;;;;;;3.33;3.33;;;;;13.55;100.00;101158.06;5060514;27;46201;-77
2022/12/24 11:32:49;;;;;;;;;4.67;4.00;;;;;13.55;100.00;101155.38;5076963;28;47325;-77
2022/12/24 11:35:25;;;;;;;;;4.67;4.67;;;;;13.53;100.00;101138.72;5090755;27;45168;-77
2022/12/24 11:38:10;;;;;;;;;7.00;5.67;;;;;13.54;100.00;101131.53;5091990;27;45423;-78
2022/12/24 11:40:42;;;;;;;;;6.67;4.67;;;;;13.57;100.00;101131.16;5098683;27;45417;-77